createdAt,value
2023-01-18T00:42:27.760Z,0.08
2023-01-18T00:48:04.122Z,0.02
2023-01-18T03:34:44.656Z,0.03
2023-01-18T03:40:10.787Z,0.02
2023-01-18T04:12:24.153Z,0.03
2023-01-18T04:19:01.122Z,0.02
2023-01-18T04:41:47.832Z,0.03
2023-01-18T04:47:03.495Z,0.02
2023-01-18T05:16:34.635Z,0.03
2023-01-18T05:43:34.568Z,0.04
2023-01-18T05:45:38.000Z,0.03
2023-01-18T05:53:36.096Z,0.04
2023-01-18T05:55:47.386Z,0.06
2023-01-18T05:57:45.664Z,0.07
2023-01-18T06:00:30.183Z,0.05
2023-01-18T06:10:14.145Z,0.04
2023-01-18T06:15:15.448Z,0.05
2023-01-18T06:17:24.913Z,0.04
2023-01-18T06:27:52.298Z,0.05
2023-01-18T06:29:53.978Z,0.06
2023-01-18T06:32:43.981Z,0.08
2023-01-18T06:35:19.799Z,0.11
2023-01-18T06:37:41.353Z,0.17
2023-01-18T06:39:49.103Z,0.24
2023-01-18T06:42:45.217Z,0.37
2023-01-18T06:45:27.359Z,0.53
2023-01-18T06:47:55.248Z,0.77
2023-01-18T06:50:09.401Z,1.16
2023-01-18T06:52:09.116Z,1.59
2023-01-18T06:54:57.335Z,2.49
2023-01-18T06:57:31.403Z,3.68
2023-01-18T06:59:51.331Z,5.15
2023-01-18T07:01:57.421Z,6.72
2023-01-18T07:04:51.679Z,9.65
2023-01-18T07:07:31.897Z,12.75
2023-01-18T07:09:58.218Z,16.48
2023-01-18T07:12:10.322Z,21.15
2023-01-18T07:14:08.311Z,25.52
2023-01-18T07:16:54.890Z,31.36
2023-01-18T07:19:27.257Z,39.09
2023-01-18T07:21:45.503Z,44.9
2023-01-18T07:23:49.934Z,52.98
2023-01-18T07:26:42.736Z,64.08
2023-01-18T07:29:20.914Z,74.08
2023-01-18T07:31:45.387Z,85
2023-01-18T07:33:55.757Z,93.88
2023-01-18T07:36:54.468Z,107.04
2023-01-18T07:39:39.237Z,120.76
2023-01-18T07:42:09.753Z,132.68
2023-01-18T07:44:26.222Z,143.68
2023-01-18T07:46:28.564Z,152.24
2023-01-18T07:49:19.512Z,164
2023-01-18T07:51:56.349Z,174
2023-01-18T07:54:18.973Z,183.4
2023-01-18T07:56:27.694Z,191.7
2023-01-18T07:59:24.768Z,204
2023-01-18T08:02:07.688Z,218.4
2023-01-18T08:04:36.419Z,232
2023-01-18T08:06:51.303Z,246.7
2023-01-18T08:08:51.976Z,258.9
2023-01-18T08:11:41.006Z,279.2
2023-01-18T08:14:16.075Z,297.9
2023-01-18T08:16:37.008Z,316.7
2023-01-18T08:18:44.005Z,331.5
2023-01-18T08:21:38.726Z,352.4
2023-01-18T08:24:19.927Z,371.3
2023-01-18T08:26:46.928Z,391.8
2023-01-18T08:28:59.765Z,412.4
2023-01-18T08:30:58.740Z,426.4
2023-01-18T08:33:45.860Z,446.4
2023-01-18T08:36:19.042Z,459.6
2023-01-18T08:38:38.210Z,474
2023-01-18T08:40:43.300Z,485.1
2023-01-18T08:43:36.721Z,498.4
2023-01-18T08:46:16.395Z,506.5
2023-01-18T08:48:42.625Z,512.9
2023-01-18T08:50:52.743Z,524
2023-01-18T08:52:49.965Z,533.4
2023-01-18T08:55:35.570Z,547
2023-01-18T08:58:07.020Z,569.1
2023-01-18T09:00:26.091Z,591.8
2023-01-18T09:02:27.760Z,616.3
2023-01-18T09:05:19.493Z,650.8
2023-01-18T09:07:57.094Z,680.6
2023-01-18T09:10:20.946Z,698.2
2023-01-18T09:12:29.803Z,706.2
2023-01-18T09:15:27.580Z,721.2
2023-01-18T09:18:11.447Z,735
2023-01-18T09:20:41.208Z,757.4
2023-01-18T09:22:57.141Z,774.4
2023-01-18T09:24:58.419Z,790.7
2023-01-18T09:27:48.413Z,806.7
2023-01-18T09:30:24.244Z,834.8
2023-01-18T09:32:45.908Z,866.5
2023-01-18T09:34:53.676Z,893.7
2023-01-18T09:37:49.742Z,933.4
2023-01-18T09:40:31.748Z,955.5
2023-01-18T09:43:00.260Z,972.4
2023-01-18T09:45:13.658Z,994.8
2023-01-18T09:47:13.365Z,1009.2
2023-01-18T09:50:01.690Z,1030.4
2023-01-18T09:52:35.753Z,1047
2023-01-18T09:54:55.638Z,1061.1
2023-01-18T09:57:01.608Z,1072
2023-01-18T09:59:55.921Z,1088
2023-01-18T10:02:36.178Z,1116.1
2023-01-18T10:05:01.613Z,1140.1
2023-01-18T10:07:13.566Z,1149.4
2023-01-18T10:09:11.411Z,1167.6
2023-01-18T10:11:57.691Z,1205.4
2023-01-18T10:14:30.060Z,1229.7
2023-01-18T10:16:48.255Z,1254
2023-01-18T10:18:52.554Z,1257.2
2023-01-18T10:21:44.920Z,1281.9
2023-01-18T10:24:23.402Z,1305.6
2023-01-18T10:26:47.691Z,1312.6
2023-01-18T10:28:58.156Z,1326.7
2023-01-18T10:31:57.214Z,1345.9
2023-01-18T10:34:41.932Z,1333.1
2023-01-18T10:37:12.365Z,1353.6
2023-01-18T10:39:28.915Z,1398.4
2023-01-18T10:41:31.407Z,1410.5
2023-01-18T10:44:21.988Z,1430.4
2023-01-18T10:46:58.893Z,1463.6
2023-01-18T10:49:21.532Z,1509.1
2023-01-18T10:51:29.968Z,1514.8
2023-01-18T10:54:26.985Z,1445.1
2023-01-18T10:57:10.100Z,1434.8
2023-01-18T10:59:38.216Z,1460.4
2023-01-18T11:01:52.991Z,1399
2023-01-18T11:03:53.321Z,1333.7
2023-01-18T11:06:42.324Z,1391.3
2023-01-18T11:09:17.232Z,1335
2023-01-18T11:11:38.216Z,1308.1
2023-01-18T11:13:44.941Z,1315.8
2023-01-18T11:16:40.185Z,1285.4
2023-01-18T11:19:21.465Z,1362.5
2023-01-18T11:21:51.457Z,1434.2
2023-01-18T11:24:01.542Z,1440
2023-01-18T11:26:00.495Z,1425.9
2023-01-18T11:28:47.827Z,1430.4
2023-01-18T11:31:01.937Z,1454.7
2023-01-18T11:33:01.930Z,1461.7
2023-01-18T11:35:50.216Z,1422
2023-01-18T11:38:24.712Z,1331.2
2023-01-18T11:40:45.047Z,1306.5
2023-01-18T11:45:45.928Z,1225.6
2023-01-18T11:48:26.163Z,1219.8
2023-01-18T11:50:52.485Z,1190.7
2023-01-18T11:53:05.477Z,1169.6
2023-01-18T11:55:03.190Z,1132.4
2023-01-18T11:57:49.770Z,1107.5
2023-01-18T12:00:22.156Z,1139.5
2023-01-18T12:02:40.676Z,1170.8
2023-01-18T12:04:44.975Z,1190
2023-01-18T12:07:37.644Z,1193.6
2023-01-18T12:10:16.473Z,1223.6
2023-01-18T12:12:41.189Z,1244.8
2023-01-18T12:14:51.709Z,1239.3
2023-01-18T12:17:53.108Z,1168.9
2023-01-18T12:20:36.111Z,1133.7
2023-01-18T12:23:07.307Z,1082.8
2023-01-18T12:25:23.749Z,1059.2
2023-01-18T12:27:26.482Z,1040.3
2023-01-18T12:30:17.719Z,1025.2
2023-01-18T12:32:54.671Z,1064
2023-01-18T12:35:23.941Z,1070.7
2023-01-18T12:37:26.712Z,1114.2
2023-01-18T12:40:23.428Z,1178.8
2023-01-18T12:43:06.661Z,1194.2
2023-01-18T12:45:35.669Z,1144
2023-01-18T12:47:50.601Z,1149.4
2023-01-18T12:49:51.577Z,1119.6
2023-01-18T12:52:41.123Z,1097.9
2023-01-18T12:55:16.311Z,1077.4
2023-01-18T12:57:37.278Z,1044.4
2023-01-18T12:59:44.561Z,1027.5
2023-01-18T13:02:40.129Z,1006.4
2023-01-18T13:05:21.383Z,1007
2023-01-18T13:07:48.898Z,1041.6
2023-01-18T13:10:02.091Z,1001.6
2023-01-18T13:12:01.182Z,947.5
2023-01-18T13:14:48.795Z,897.9
2023-01-18T13:17:22.297Z,858.8
2023-01-18T13:19:41.560Z,827.8
2023-01-18T13:21:46.939Z,819.5
2023-01-18T13:24:40.797Z,834.5
2023-01-18T13:27:20.436Z,878.7
2023-01-18T13:29:45.773Z,904
2023-01-18T13:31:56.919Z,913.6
2023-01-18T13:33:54.212Z,902.4
2023-01-18T13:36:40.123Z,884.8
2023-01-18T13:39:11.644Z,845.1
2023-01-18T13:41:29.303Z,819.8
2023-01-18T13:43:32.706Z,786.5
2023-01-18T13:46:24.970Z,775.3
2023-01-18T13:49:02.717Z,760.6
2023-01-18T13:51:26.516Z,694.7
2023-01-18T13:53:36.552Z,680.6
2023-01-18T13:56:34.640Z,672.9
2023-01-18T13:59:18.977Z,686
2023-01-18T14:01:48.722Z,697.6
2023-01-18T14:04:04.568Z,647.3
2023-01-18T14:06:06.291Z,637.6
2023-01-18T14:08:56.459Z,622.5
2023-01-18T14:11:32.539Z,591.2
2023-01-18T14:13:54.647Z,566.2
2023-01-18T14:16:02.480Z,552.9
2023-01-18T14:18:58.823Z,536.9
2023-01-18T14:21:40.942Z,536.4
2023-01-18T14:24:08.539Z,532.6
2023-01-18T14:26:22.421Z,526.5
2023-01-18T14:28:22.253Z,516.1
2023-01-18T14:31:10.607Z,497.1
2023-01-18T14:33:44.625Z,479.2
2023-01-18T14:36:04.861Z,470.7
2023-01-18T14:38:17.663Z,465.2
2023-01-18T14:41:05.539Z,452.1
2023-01-18T14:43:45.818Z,433.7
2023-01-18T14:46:12.070Z,421.4
2023-01-18T14:48:24.284Z,417.4
2023-01-18T14:50:22.822Z,409.9
2023-01-18T14:53:09.197Z,396.1
2023-01-18T14:55:41.463Z,380
2023-01-18T14:57:59.617Z,375.8
2023-01-18T15:00:03.925Z,370.7
2023-01-18T15:02:56.720Z,356.8
2023-01-18T15:07:59.535Z,354.2
2023-01-18T15:10:09.983Z,340.3
2023-01-18T15:13:08.996Z,308.7
2023-01-18T15:15:53.115Z,272.9
2023-01-18T15:18:23.773Z,257.1
2023-01-18T15:20:40.337Z,256.4
2023-01-18T15:22:42.936Z,254
2023-01-18T15:25:33.756Z,236.7
2023-01-18T15:28:22.883Z,241
2023-01-18T15:30:33.266Z,231.4
2023-01-18T15:32:42.404Z,215.2
2023-01-18T15:35:39.287Z,188.6
2023-01-18T15:38:22.729Z,158.88
2023-01-18T15:40:51.361Z,135.96
2023-01-18T15:43:06.228Z,120.44
2023-01-18T15:45:06.844Z,107.64
2023-01-18T15:47:56.489Z,88.8
2023-01-18T15:50:31.444Z,72.3
2023-01-18T15:52:52.473Z,56.9
2023-01-18T15:54:59.531Z,43.24
2023-01-18T15:57:54.884Z,30.85
2023-01-18T16:00:36.069Z,23.87
2023-01-18T16:03:04.518Z,20.05
2023-01-18T16:05:16.119Z,15.92
2023-01-18T16:07:14.627Z,12.31
2023-01-18T16:10:01.830Z,8.75
2023-01-18T16:12:35.214Z,5.7
2023-01-18T16:14:54.419Z,4.32
2023-01-18T16:16:59.439Z,3.04
2023-01-18T16:19:53.089Z,1.96
2023-01-18T16:22:32.547Z,1.36
2023-01-18T16:24:57.891Z,0.94
2023-01-18T16:27:11.047Z,0.71
2023-01-18T16:29:06.447Z,0.55
2023-01-18T16:31:52.056Z,0.38
2023-01-18T16:34:23.398Z,0.27
2023-01-18T16:36:42.203Z,0.22
2023-01-18T16:38:44.109Z,0.2
2023-01-18T16:41:35.722Z,0.19
2023-01-18T16:44:13.439Z,0.16
2023-01-18T16:46:37.109Z,0.15
2023-01-18T16:48:46.570Z,0.14
2023-01-18T16:54:28.498Z,0.11
2023-01-18T17:01:15.146Z,0.13
2023-01-18T17:04:05.014Z,0.14
2023-01-18T17:06:40.833Z,0.12
2023-01-18T17:09:02.753Z,0.11
2023-01-18T17:11:10.527Z,0.12
2023-01-18T17:19:16.957Z,0.1
2023-01-18T17:21:30.796Z,0.08
2023-01-18T17:26:19.114Z,0.07
2023-01-18T17:28:53.355Z,0.09
2023-01-18T17:31:13.391Z,0.07
2023-01-18T17:33:19.352Z,0.08
2023-01-18T17:36:13.810Z,0.07
2023-01-18T17:41:26.405Z,0.08
2023-01-18T17:45:31.011Z,0.07
2023-01-18T17:48:17.281Z,0.08
2023-01-18T17:53:07.599Z,0.07
2023-01-18T17:58:04.724Z,0.09
2023-01-18T18:03:07.969Z,0.08
2023-01-18T18:05:18.139Z,0.07
2023-01-18T18:08:17.037Z,0.08
2023-01-18T18:11:01.728Z,0.09
2023-01-18T18:17:51.516Z,0.07
2023-01-18T18:23:19.544Z,0.05
2023-01-18T18:25:42.253Z,0.07
2023-01-18T18:27:51.027Z,0.05
2023-01-18T18:30:48.489Z,0.06
2023-01-18T18:38:14.637Z,0.07
2023-01-18T18:40:15.313Z,0.06
2023-01-18T18:43:04.346Z,0.05
2023-01-18T18:48:00.229Z,0.07
2023-01-18T18:53:02.710Z,0.05
2023-01-18T18:55:43.843Z,0.06
2023-01-18T18:58:10.986Z,0.05
2023-01-18T19:00:23.867Z,0.06
2023-01-18T19:02:22.862Z,0.05
2023-01-18T19:12:07.814Z,0.04
2023-01-18T19:15:01.347Z,0.03
2023-01-18T19:24:14.824Z,0.04
2023-01-18T19:39:22.741Z,0.03
2023-01-18T19:43:54.971Z,0.04
2023-01-18T19:46:52.959Z,0.03
2023-01-18T19:56:24.093Z,0.04
2023-01-18T19:59:13.917Z,0.03
2023-01-18T20:01:49.948Z,0.04
2023-01-18T20:09:19.757Z,0.03
2023-01-18T20:36:28.168Z,0.04
2023-01-18T20:38:40.453Z,0.03
2023-01-18T20:43:24.757Z,0.04
2023-01-18T20:45:57.267Z,0.03
2023-01-18T20:53:12.341Z,0.05
2023-01-18T20:55:50.939Z,0.07
2023-01-18T20:58:15.379Z,0.03
2023-01-18T21:06:09.754Z,0.02
2023-01-18T21:10:56.616Z,0.03
2023-01-18T21:15:49.816Z,0.02
2023-01-18T21:35:21.628Z,0.03
2023-01-18T21:38:10.805Z,0.02
2023-01-18T21:43:06.646Z,0.03
2023-01-18T21:50:49.947Z,0.02
2023-01-18T22:12:12.752Z,0.03
2023-01-18T22:17:13.618Z,0.02
2023-01-18T22:44:10.129Z,0.01
2023-01-18T22:46:20.736Z,0.02
2023-01-18T22:54:35.665Z,0.01
2023-01-18T22:56:52.277Z,0.02
2023-01-18T23:04:22.621Z,0.01
2023-01-18T23:06:45.795Z,0.02
2023-01-18T23:17:04.515Z,0.01
2023-01-18T23:19:18.893Z,0.02
2023-01-18T23:24:09.295Z,0.01
2023-01-18T23:26:44.516Z,0.02
2023-01-18T23:31:12.640Z,0.01
2023-01-18T23:34:08.086Z,0.02
2023-01-18T23:39:16.807Z,0.01
2023-01-18T23:43:29.029Z,0.02
2023-01-18T23:46:16.699Z,0.01
2023-01-18T23:48:50.241Z,0.02
2023-01-18T23:51:09.567Z,0.01
2023-01-18T23:53:14.579Z,0.02
2023-01-18T23:58:47.954Z,0.01
